Time;durP1;ratioP1;P1;durP2;ratioP2;P2;SDS_P1;SDS_P2;PMS_P1;PMS_P2;Temp;Humidity;BMP_temperature;BMP_pressure;BME280_temperature;BME280_humidity;BME280_pressure;Samples;Min_cycle;Max_cycle;Signal;HPM_P1;HPM_P2
2022/08/23 00:01:25;;;;;;;3.03;1.80;;;18.90;99.90;;;;;;624035;230;26617;-65
2022/08/23 00:03:52;;;;;;;3.72;1.85;;;18.90;99.90;;;;;;623656;230;26981;-65
2022/08/23 00:06:21;;;;;;;3.40;1.87;;;18.90;99.90;;;;;;624032;230;26578;-64
2022/08/23 00:08:48;;;;;;;1.83;1.60;;;18.90;99.90;;;;;;623715;231;26622;-64
2022/08/23 00:11:27;;;;;;;2.22;1.58;;;18.90;99.90;;;;;;623685;227;26824;-64
2022/08/23 00:13:54;;;;;;;1.85;1.73;;;18.90;99.90;;;;;;623772;231;26556;-64
2022/08/23 00:16:21;;;;;;;4.10;1.67;;;18.90;99.90;;;;;;623688;231;26787;-63
2022/08/23 00:18:48;;;;;;;2.87;1.90;;;18.90;99.90;;;;;;623766;231;26584;-63
2022/08/23 00:21:15;;;;;;;2.15;1.92;;;18.90;99.90;;;;;;623668;230;27077;-63
2022/08/23 00:23:43;;;;;;;1.85;1.65;;;18.80;99.90;;;;;;623763;231;26559;-63
2022/08/23 00:26:10;;;;;;;3.42;1.98;;;18.90;99.90;;;;;;623880;231;26770;-64
2022/08/23 00:28:38;;;;;;;3.37;1.80;;;18.80;99.90;;;;;;623814;231;26524;-64
2022/08/23 00:31:05;;;;;;;1.75;1.65;;;18.80;99.90;;;;;;623388;227;26804;-64
2022/08/23 00:33:32;;;;;;;2.03;1.83;;;18.80;99.90;;;;;;623334;230;26563;-64
2022/08/23 00:35:59;;;;;;;1.65;1.55;;;18.80;99.90;;;;;;623216;231;26814;-64
2022/08/23 00:38:26;;;;;;;1.60;1.50;;;18.80;99.90;;;;;;623368;230;26556;-64
2022/08/23 00:40:55;;;;;;;1.75;1.62;;;18.80;99.90;;;;;;623373;231;26583;-64
2022/08/23 00:48:30;;;;;;;2.53;2.22;;;18.70;99.90;;;;;;623464;230;26532;-64
2022/08/23 00:50:57;;;;;;;2.00;1.80;;;18.70;99.90;;;;;;623391;231;26841;-64
2022/08/23 00:53:26;;;;;;;2.65;1.98;;;18.70;99.90;;;;;;622946;231;26560;-64
2022/08/23 00:55:53;;;;;;;1.95;1.80;;;18.70;99.90;;;;;;623368;230;26576;-64
2022/08/23 00:58:21;;;;;;;2.30;1.77;;;18.60;99.90;;;;;;622854;230;26551;-64
2022/08/23 01:00:49;;;;;;;1.70;1.60;;;18.60;99.90;;;;;;624045;228;26579;-64
2022/08/23 01:03:18;;;;;;;1.92;1.67;;;18.50;99.90;;;;;;624828;230;26668;-64
2022/08/23 01:05:45;;;;;;;2.28;2.00;;;18.50;99.90;;;;;;624438;230;26822;-64
2022/08/23 01:08:13;;;;;;;2.20;1.77;;;18.50;99.90;;;;;;623914;230;26547;-64
2022/08/23 01:10:41;;;;;;;1.83;1.70;;;18.50;99.90;;;;;;624025;226;26590;-64
2022/08/23 01:13:09;;;;;;;1.98;1.80;;;18.40;99.90;;;;;;623783;230;26584;-64
2022/08/23 01:15:37;;;;;;;2.22;1.80;;;18.40;99.90;;;;;;623478;229;26858;-64
2022/08/23 01:18:04;;;;;;;2.17;1.48;;;18.40;99.90;;;;;;623320;230;26794;-65
2022/08/23 01:20:32;;;;;;;1.85;1.75;;;18.40;99.90;;;;;;623666;230;26785;-64
2022/08/23 01:23:15;;;;;;;1.70;1.60;;;18.40;99.90;;;;;;623439;230;26559;-65
2022/08/23 01:25:42;;;;;;;1.80;1.70;;;18.40;99.90;;;;;;623523;230;26613;-64
2022/08/23 01:28:10;;;;;;;1.60;1.50;;;18.40;99.90;;;;;;623646;230;26568;-63
2022/08/23 01:30:37;;;;;;;2.10;1.90;;;18.40;99.90;;;;;;623692;226;26591;-64
2022/08/23 01:33:04;;;;;;;1.75;1.55;;;18.40;99.90;;;;;;623685;230;26826;-64
2022/08/23 01:35:35;;;;;;;2.35;1.70;;;18.40;99.90;;;;;;623726;231;26561;-65
2022/08/23 01:38:02;;;;;;;1.75;1.50;;;18.40;99.90;;;;;;623256;231;26915;-65
2022/08/23 01:40:31;;;;;;;1.33;1.33;;;18.40;99.90;;;;;;623396;227;26567;-65
2022/08/23 01:42:58;;;;;;;1.30;1.20;;;18.40;99.90;;;;;;623443;231;26570;-65
2022/08/23 01:45:26;;;;;;;1.50;1.40;;;18.40;99.90;;;;;;623430;231;26560;-64
2022/08/23 01:47:54;;;;;;;1.52;1.30;;;18.40;99.90;;;;;;623433;231;26552;-64
2022/08/23 01:50:22;;;;;;;1.73;1.62;;;18.40;99.90;;;;;;623393;231;26593;-64
2022/08/23 01:52:50;;;;;;;1.60;1.50;;;18.40;99.90;;;;;;623417;230;26797;-64
2022/08/23 01:55:17;;;;;;;1.87;1.50;;;18.40;99.90;;;;;;623414;231;26800;-64
2022/08/23 01:57:44;;;;;;;2.22;1.50;;;18.40;99.90;;;;;;623739;230;26525;-64
2022/08/23 02:00:12;;;;;;;2.12;1.60;;;18.40;99.90;;;;;;623785;231;26860;-64
2022/08/23 02:02:39;;;;;;;1.92;1.50;;;18.40;99.90;;;;;;623843;231;26532;-64
2022/08/23 02:05:07;;;;;;;2.33;1.30;;;18.40;99.90;;;;;;623822;231;26516;-64
2022/08/23 02:07:34;;;;;;;2.90;1.60;;;18.40;99.90;;;;;;623823;231;26513;-64
2022/08/23 02:10:02;;;;;;;1.95;1.52;;;18.40;99.90;;;;;;623797;231;26559;-64
2022/08/23 02:12:30;;;;;;;1.50;1.40;;;18.40;99.90;;;;;;624644;228;26535;-64
2022/08/23 02:14:58;;;;;;;1.70;1.60;;;18.30;99.90;;;;;;625264;229;26575;-64
2022/08/23 02:17:25;;;;;;;2.97;1.77;;;18.30;99.90;;;;;;624755;229;26556;-64
2022/08/23 02:19:53;;;;;;;2.03;1.50;;;18.30;99.90;;;;;;624322;226;26623;-64
2022/08/23 02:22:19;;;;;;;1.65;1.55;;;18.30;99.90;;;;;;624068;230;27253;-64
2022/08/23 02:24:47;;;;;;;2.08;1.60;;;18.30;99.90;;;;;;624096;230;26634;-64
2022/08/23 02:27:14;;;;;;;2.25;1.60;;;18.30;99.90;;;;;;623936;230;26827;-64
2022/08/23 02:29:43;;;;;;;1.98;1.40;;;18.30;99.90;;;;;;623975;230;26825;-64
2022/08/23 02:32:09;;;;;;;1.92;1.33;;;18.40;99.90;;;;;;623688;231;26551;-64
2022/08/23 02:34:36;;;;;;;2.20;1.73;;;18.30;99.90;;;;;;623696;231;26785;-64
2022/08/23 02:37:04;;;;;;;1.52;1.40;;;18.30;99.90;;;;;;623732;231;26553;-64
2022/08/23 02:39:33;;;;;;;1.98;1.48;;;18.30;99.90;;;;;;623730;231;26563;-64
2022/08/23 02:42:00;;;;;;;1.60;1.50;;;18.30;99.90;;;;;;623737;231;26559;-64
2022/08/23 02:44:29;;;;;;;1.80;1.50;;;18.30;99.90;;;;;;623708;231;26820;-64
2022/08/23 02:46:54;;;;;;;1.67;1.58;;;18.30;99.90;;;;;;623674;230;26536;-64
2022/08/23 02:49:22;;;;;;;2.40;1.60;;;18.30;99.90;;;;;;623479;230;26875;-64
2022/08/23 02:51:49;;;;;;;1.83;1.73;;;18.30;99.90;;;;;;623386;227;26589;-65
2022/08/23 02:54:16;;;;;;;1.60;1.50;;;18.30;99.90;;;;;;623330;230;27109;-65
2022/08/23 02:56:43;;;;;;;1.90;1.73;;;18.30;99.90;;;;;;623501;227;26562;-65
2022/08/23 02:59:12;;;;;;;3.05;1.65;;;18.30;99.90;;;;;;623515;230;26834;-65
2022/08/23 03:01:38;;;;;;;2.50;1.60;;;18.40;99.90;;;;;;623391;230;26601;-65
2022/08/23 03:04:06;;;;;;;1.80;1.35;;;18.30;99.90;;;;;;623531;231;26550;-65
2022/08/23 03:06:34;;;;;;;2.10;1.85;;;18.40;99.90;;;;;;623505;230;26521;-65
2022/08/23 03:09:02;;;;;;;2.22;1.65;;;18.40;99.90;;;;;;623538;231;26527;-65
2022/08/23 03:11:29;;;;;;;2.97;1.77;;;18.40;99.90;;;;;;623403;231;26575;-65
2022/08/23 03:13:57;;;;;;;2.10;1.73;;;18.40;99.90;;;;;;623545;231;26563;-65
2022/08/23 03:16:24;;;;;;;1.65;1.55;;;18.40;99.90;;;;;;623457;231;26781;-65
2022/08/23 03:18:51;;;;;;;2.70;2.00;;;18.40;99.90;;;;;;623405;231;26560;-65
2022/08/23 03:21:19;;;;;;;1.75;1.65;;;18.40;99.90;;;;;;623353;231;26873;-65
2022/08/23 03:23:47;;;;;;;6.20;2.50;;;18.40;99.90;;;;;;624022;228;26821;-65
2022/08/23 03:26:14;;;;;;;2.92;1.90;;;18.40;99.90;;;;;;624784;230;26761;-66
2022/08/23 03:28:41;;;;;;;4.72;2.37;;;18.40;99.90;;;;;;624433;230;26583;-65
2022/08/23 03:31:09;;;;;;;1.62;1.50;;;18.40;99.90;;;;;;624180;230;27164;-66
2022/08/23 03:33:37;;;;;;;2.08;1.80;;;18.40;99.90;;;;;;624027;227;26633;-66
2022/08/23 03:36:05;;;;;;;2.08;1.90;;;18.40;99.90;;;;;;623973;230;26584;-66
2022/08/23 03:38:31;;;;;;;2.47;1.92;;;18.30;99.90;;;;;;624023;230;26801;-66
2022/08/23 03:40:58;;;;;;;2.12;1.70;;;18.30;99.90;;;;;;623874;230;26621;-66
2022/08/23 03:43:27;;;;;;;2.12;1.98;;;18.30;99.90;;;;;;623733;230;26788;-66
2022/08/23 03:45:54;;;;;;;2.03;1.55;;;18.30;99.90;;;;;;623731;230;26564;-66
2022/08/23 03:48:22;;;;;;;3.70;2.08;;;18.30;99.90;;;;;;623758;231;26547;-66
2022/08/23 03:50:50;;;;;;;2.03;1.83;;;18.20;99.90;;;;;;623711;231;26579;-66
2022/08/23 03:53:17;;;;;;;2.87;2.20;;;18.20;99.90;;;;;;623766;230;26563;-66
2022/08/23 03:55:44;;;;;;;4.50;2.28;;;18.30;99.90;;;;;;623782;230;26563;-66
2022/08/23 03:58:11;;;;;;;3.15;2.20;;;18.30;99.90;;;;;;623740;227;26842;-66
2022/08/23 04:00:39;;;;;;;2.40;2.00;;;18.30;99.90;;;;;;623504;231;26572;-66
2022/08/23 04:03:06;;;;;;;2.55;1.98;;;18.30;99.90;;;;;;623420;231;26791;-66
2022/08/23 04:05:33;;;;;;;2.05;1.90;;;18.30;99.90;;;;;;623490;231;26561;-66
2022/08/23 04:08:01;;;;;;;2.47;2.28;;;18.30;99.90;;;;;;623437;231;26801;-66
2022/08/23 04:10:27;;;;;;;2.50;2.20;;;18.30;99.90;;;;;;622955;230;26567;-66
2022/08/23 04:12:55;;;;;;;2.50;2.30;;;18.30;99.90;;;;;;623406;231;26810;-66
2022/08/23 04:15:22;;;;;;;2.30;2.10;;;18.30;99.90;;;;;;623440;230;26563;-66
2022/08/23 04:17:49;;;;;;;3.78;2.37;;;18.30;99.90;;;;;;623485;231;26785;-66
2022/08/23 04:20:17;;;;;;;2.70;2.00;;;18.30;99.90;;;;;;623411;230;26575;-66
2022/08/23 04:22:44;;;;;;;2.58;2.00;;;18.30;99.90;;;;;;623459;231;26554;-66
2022/08/23 04:25:11;;;;;;;3.53;2.12;;;18.30;99.90;;;;;;623483;230;26780;-66
2022/08/23 04:27:39;;;;;;;3.20;2.15;;;18.30;99.90;;;;;;623364;230;26564;-66
2022/08/23 04:30:06;;;;;;;2.30;1.60;;;18.30;99.90;;;;;;623322;227;26933;-66
2022/08/23 04:32:34;;;;;;;2.30;2.08;;;18.30;99.90;;;;;;623415;230;26521;-66
2022/08/23 04:35:01;;;;;;;1.95;1.70;;;18.30;99.90;;;;;;623723;229;26804;-66
2022/08/23 04:37:28;;;;;;;2.17;1.90;;;18.30;99.90;;;;;;625088;230;26563;-66
2022/08/23 04:42:28;;;;;;;3.62;2.08;;;18.20;99.90;;;;;;624388;230;26836;-66
2022/08/23 04:44:56;;;;;;;5.00;1.92;;;18.20;99.90;;;;;;624099;230;26545;-66
2022/08/23 04:47:24;;;;;;;2.37;2.17;;;18.30;99.90;;;;;;624013;230;26568;-66
2022/08/23 04:49:51;;;;;;;3.30;2.35;;;18.30;99.90;;;;;;623951;226;26589;-66
2022/08/23 04:52:18;;;;;;;4.50;2.33;;;18.30;99.90;;;;;;624048;229;26541;-66
2022/08/23 04:54:46;;;;;;;2.47;2.20;;;18.30;99.90;;;;;;623750;230;26796;-66
2022/08/23 04:57:14;;;;;;;2.53;2.10;;;18.30;99.90;;;;;;623721;231;26571;-66
2022/08/23 04:59:40;;;;;;;1.85;1.70;;;18.20;99.90;;;;;;623646;230;26784;-66
2022/08/23 05:02:07;;;;;;;3.70;2.30;;;18.20;99.90;;;;;;623791;231;26559;-66
2022/08/23 05:04:35;;;;;;;4.85;2.50;;;18.30;99.90;;;;;;623728;231;26789;-66
2022/08/23 05:07:02;;;;;;;1.98;1.87;;;18.30;99.90;;;;;;623650;230;26561;-66
2022/08/23 05:09:29;;;;;;;3.40;2.30;;;18.30;99.90;;;;;;623760;231;26794;-66
2022/08/23 05:11:56;;;;;;;2.10;1.90;;;18.40;99.90;;;;;;623558;230;26585;-66
2022/08/23 05:14:23;;;;;;;4.75;2.50;;;18.40;99.90;;;;;;623467;231;26789;-66
2022/08/23 05:16:51;;;;;;;4.03;2.20;;;18.50;99.90;;;;;;623467;231;26552;-66
2022/08/23 05:19:19;;;;;;;2.53;2.25;;;18.50;99.90;;;;;;623409;230;26573;-66
2022/08/23 05:21:47;;;;;;;3.37;2.45;;;18.60;99.90;;;;;;623395;227;26585;-66
2022/08/23 05:24:15;;;;;;;4.68;2.30;;;18.60;99.90;;;;;;623420;230;26567;-65
2022/08/23 05:26:43;;;;;;;2.78;2.17;;;18.60;99.90;;;;;;623456;230;26566;-65
2022/08/23 05:29:11;;;;;;;3.47;1.92;;;18.60;99.90;;;;;;623421;230;26573;-65
2022/08/23 05:31:38;;;;;;;2.83;2.55;;;18.60;99.90;;;;;;623406;227;26594;-65
2022/08/23 05:34:06;;;;;;;3.83;2.50;;;18.70;99.90;;;;;;623728;230;26540;-65
2022/08/23 05:36:33;;;;;;;2.20;2.05;;;18.70;99.90;;;;;;623832;231;26991;-66
2022/08/23 05:39:00;;;;;;;3.08;2.00;;;18.80;99.90;;;;;;623857;231;26532;-66
2022/08/23 05:41:28;;;;;;;2.90;2.10;;;18.90;99.90;;;;;;623419;231;26788;-66
2022/08/23 05:43:55;;;;;;;2.80;2.20;;;18.80;99.90;;;;;;623345;230;26772;-66
2022/08/23 05:46:22;;;;;;;2.25;2.10;;;18.90;99.90;;;;;;623353;228;26569;-66
2022/08/23 05:48:49;;;;;;;5.00;2.25;;;19.00;99.90;;;;;;625127;229;27252;-66
2022/08/23 05:51:17;;;;;;;2.12;1.87;;;19.00;99.90;;;;;;624368;229;26689;-66
2022/08/23 05:53:44;;;;;;;1.75;1.65;;;19.10;99.90;;;;;;624156;230;26799;-66
2022/08/23 05:56:13;;;;;;;1.65;1.55;;;19.10;99.90;;;;;;624112;230;26572;-66
2022/08/23 05:58:41;;;;;;;2.22;2.00;;;19.30;99.90;;;;;;623847;230;26604;-66
2022/08/23 06:01:09;;;;;;;2.22;2.03;;;19.20;99.90;;;;;;623878;227;26872;-65
2022/08/23 06:03:37;;;;;;;2.33;2.22;;;19.30;99.90;;;;;;623796;230;26585;-65
2022/08/23 06:06:05;;;;;;;2.53;2.10;;;19.40;99.90;;;;;;623771;230;26817;-65
2022/08/23 06:08:31;;;;;;;2.47;1.90;;;19.40;99.90;;;;;;623719;230;26582;-65
2022/08/23 06:10:58;;;;;;;1.90;1.52;;;19.50;99.90;;;;;;623644;230;27337;-65
2022/08/23 06:13:26;;;;;;;1.85;1.75;;;19.80;99.90;;;;;;623545;230;26607;-65
2022/08/23 06:15:54;;;;;;;2.03;1.83;;;20.00;99.90;;;;;;623644;231;26564;-65
2022/08/23 06:18:22;;;;;;;3.00;2.30;;;19.90;99.90;;;;;;623625;231;26559;-65
2022/08/23 06:20:56;;;;;;;2.12;1.90;;;20.00;99.90;;;;;;623603;231;26599;-65
2022/08/23 06:23:23;;;;;;;2.45;2.10;;;20.00;99.90;;;;;;623446;230;26799;-65
2022/08/23 06:25:51;;;;;;;2.90;2.22;;;20.00;99.90;;;;;;623323;230;26532;-67
2022/08/23 06:28:19;;;;;;;2.72;1.85;;;20.00;99.90;;;;;;623344;230;26575;-66
2022/08/23 06:30:46;;;;;;;3.00;2.03;;;20.00;99.90;;;;;;621050;230;26670;-67
2022/08/23 06:33:13;;;;;;;3.33;1.87;;;19.90;99.90;;;;;;623893;230;26634;-66
2022/08/23 06:35:40;;;;;;;3.33;2.50;;;20.00;99.90;;;;;;622863;230;26610;-66
2022/08/23 06:38:08;;;;;;;3.87;2.53;;;20.10;99.90;;;;;;618501;231;26814;-66
2022/08/23 06:40:35;;;;;;;4.45;2.42;;;20.10;99.90;;;;;;618483;232;26616;-66
2022/08/23 06:43:03;;;;;;;2.00;1.87;;;20.10;99.90;;;;;;618920;232;26833;-66
2022/08/23 06:45:30;;;;;;;3.97;2.20;;;20.30;99.90;;;;;;619838;230;26590;-66
2022/08/23 06:47:56;;;;;;;3.53;2.12;;;20.40;99.90;;;;;;621212;230;27021;-66
2022/08/23 06:50:23;;;;;;;2.05;1.85;;;20.40;99.90;;;;;;622197;230;26591;-66
2022/08/23 06:52:51;;;;;;;2.87;2.45;;;20.30;99.90;;;;;;622838;230;26808;-66
2022/08/23 06:55:18;;;;;;;2.08;1.90;;;20.40;99.90;;;;;;623010;230;26595;-66
2022/08/23 06:57:45;;;;;;;3.67;1.90;;;20.50;99.90;;;;;;622799;230;26829;-66
2022/08/23 07:00:13;;;;;;;4.18;2.40;;;20.70;99.90;;;;;;620915;229;26640;-66
2022/08/23 07:02:40;;;;;;;2.40;2.10;;;20.90;99.90;;;;;;619614;232;26568;-66
2022/08/23 07:05:07;;;;;;;2.10;1.90;;;21.10;99.90;;;;;;619367;232;26917;-66
2022/08/23 07:07:35;;;;;;;3.83;2.40;;;21.30;99.40;;;;;;619345;232;26842;-66
2022/08/23 07:10:03;;;;;;;2.20;2.00;;;21.40;99.60;;;;;;618991;232;26598;-66
2022/08/23 07:12:30;;;;;;;2.42;1.95;;;21.30;99.60;;;;;;619099;232;26809;-66
2022/08/23 07:14:57;;;;;;;2.12;2.00;;;21.50;99.00;;;;;;619087;232;26530;-66
2022/08/23 07:17:24;;;;;;;1.73;1.62;;;21.70;98.30;;;;;;618925;232;26945;-65
2022/08/23 07:19:52;;;;;;;2.20;2.00;;;21.90;98.70;;;;;;618811;232;26570;-66
2022/08/23 07:22:19;;;;;;;2.03;1.77;;;22.00;97.80;;;;;;618803;232;26815;-66
2022/08/23 07:24:46;;;;;;;2.22;2.03;;;21.90;97.90;;;;;;620815;230;26641;-66
2022/08/23 07:27:13;;;;;;;3.15;2.22;;;21.90;97.50;;;;;;623670;230;26544;-66
2022/08/23 07:29:41;;;;;;;2.50;2.30;;;22.10;97.60;;;;;;623716;231;26555;-67
2022/08/23 07:32:09;;;;;;;2.85;2.20;;;22.10;97.80;;;;;;624373;230;26558;-65
2022/08/23 07:34:37;;;;;;;4.18;2.67;;;22.00;97.80;;;;;;626368;225;26555;-65
2022/08/23 07:37:05;;;;;;;2.42;2.22;;;22.10;98.20;;;;;;623757;230;26777;-65
2022/08/23 07:39:34;;;;;;;2.00;1.80;;;22.30;97.50;;;;;;618717;231;26819;-65
2022/08/23 07:42:03;;;;;;;3.97;1.95;;;22.30;97.40;;;;;;621637;230;26840;-65
2022/08/23 07:44:29;;;;;;;2.58;1.62;;;22.30;97.40;;;;;;624407;230;26816;-68
2022/08/23 07:46:56;;;;;;;2.87;2.08;;;22.40;97.10;;;;;;624438;230;26584;-68
2022/08/23 07:49:24;;;;;;;5.35;2.20;;;22.50;97.20;;;;;;624446;230;26861;-67
2022/08/23 07:51:50;;;;;;;3.60;2.10;;;22.60;97.10;;;;;;624217;230;26626;-68
2022/08/23 07:54:18;;;;;;;6.18;2.35;;;22.70;97.00;;;;;;621104;230;26838;-68
2022/08/23 07:56:45;;;;;;;4.80;2.65;;;22.60;97.00;;;;;;618568;231;26647;-68
2022/08/23 07:59:13;;;;;;;6.75;2.47;;;22.60;96.90;;;;;;618627;231;26839;-67
2022/08/23 08:01:39;;;;;;;1.92;1.80;;;22.60;96.40;;;;;;618518;232;26640;-68
2022/08/23 08:04:07;;;;;;;3.58;1.80;;;22.90;95.80;;;;;;618578;231;26629;-67
2022/08/23 08:06:38;;;;;;;2.78;1.73;;;23.10;95.20;;;;;;618634;232;26629;-67
2022/08/23 08:09:06;;;;;;;2.78;2.00;;;23.10;95.70;;;;;;618605;232;26672;-67
2022/08/23 08:11:34;;;;;;;2.08;1.87;;;23.30;94.90;;;;;;620138;228;26624;-67
2022/08/23 08:14:02;;;;;;;2.05;1.80;;;23.30;94.40;;;;;;619819;231;26550;-67
2022/08/23 08:16:29;;;;;;;1.90;1.80;;;23.30;94.40;;;;;;619340;232;26630;-67
2022/08/23 08:18:56;;;;;;;2.10;1.85;;;23.20;95.10;;;;;;619353;232;26628;-67
2022/08/23 08:21:24;;;;;;;2.55;1.80;;;23.10;95.30;;;;;;619397;229;26996;-67
2022/08/23 08:23:51;;;;;;;1.87;1.77;;;23.10;95.00;;;;;;621893;230;26569;-67
2022/08/23 08:26:19;;;;;;;3.30;1.83;;;23.20;94.80;;;;;;621803;230;26849;-67
2022/08/23 08:28:45;;;;;;;3.75;1.90;;;23.30;94.70;;;;;;624822;230;26563;-67
2022/08/23 08:31:13;;;;;;;3.78;1.90;;;23.20;95.10;;;;;;620549;230;26818;-67
2022/08/23 08:33:40;;;;;;;2.92;1.80;;;23.30;95.10;;;;;;618919;231;26641;-67
2022/08/23 08:36:07;;;;;;;2.58;2.08;;;23.30;94.60;;;;;;618934;231;26819;-67
2022/08/23 08:38:34;;;;;;;2.67;1.90;;;23.30;94.60;;;;;;620273;230;26611;-67
2022/08/23 08:41:17;;;;;;;2.45;1.90;;;23.60;93.50;;;;;;624355;230;26652;-66
2022/08/23 08:43:48;;;;;;;2.67;2.03;;;23.60;93.40;;;;;;624365;230;26627;-66
2022/08/23 08:46:17;;;;;;;2.00;1.80;;;23.70;93.00;;;;;;624194;230;26810;-67
2022/08/23 08:48:45;;;;;;;2.15;1.60;;;23.90;92.90;;;;;;624054;230;26622;-67
2022/08/23 08:51:16;;;;;;;2.45;2.12;;;24.20;92.20;;;;;;624251;230;26644;-66
2022/08/23 08:53:43;;;;;;;5.55;2.67;;;24.20;91.50;;;;;;623828;230;26632;-66
2022/08/23 08:56:29;;;;;;;2.97;1.77;;;24.20;91.70;;;;;;621803;230;26614;-66
2022/08/23 08:58:58;;;;;;;4.45;2.12;;;24.20;91.60;;;;;;618716;232;26615;-66
2022/08/23 09:01:26;;;;;;;8.85;3.12;;;24.20;91.60;;;;;;618660;232;26608;-66
2022/08/23 09:03:53;;;;;;;3.87;2.20;;;24.20;91.20;;;;;;618643;232;26838;-67
2022/08/23 09:06:24;;;;;;;5.53;2.60;;;23.90;91.40;;;;;;618701;231;26601;-66
2022/08/23 09:09:07;;;;;;;6.25;3.47;;;23.80;91.40;;;;;;617593;232;26827;-67
2022/08/23 09:11:38;;;;;;;8.45;3.42;;;23.70;91.50;;;;;;618610;230;26633;-67
2022/08/23 09:14:12;;;;;;;11.18;4.10;;;23.70;91.30;;;;;;622902;230;26549;-66
2022/08/23 09:16:52;;;;;;;7.60;3.55;;;23.70;91.30;;;;;;622823;231;26565;-68
2022/08/23 09:19:19;;;;;;;3.85;2.33;;;23.60;90.70;;;;;;623199;230;27187;-68
2022/08/23 09:21:48;;;;;;;6.80;3.40;;;23.80;91.00;;;;;;624288;228;26606;-68
2022/08/23 09:24:14;;;;;;;4.93;2.37;;;23.80;90.80;;;;;;625031;230;26539;-64
2022/08/23 09:26:42;;;;;;;4.95;2.50;;;23.70;90.60;;;;;;625386;230;26556;-66
2022/08/23 09:29:12;;;;;;;2.12;1.98;;;23.60;90.90;;;;;;619587;227;26611;-65
2022/08/23 09:31:43;;;;;;;2.30;1.90;;;23.60;91.10;;;;;;625950;230;26602;-66
2022/08/23 09:34:11;;;;;;;5.00;2.67;;;23.60;91.10;;;;;;626189;230;26596;-66
2022/08/23 09:36:39;;;;;;;2.28;1.92;;;23.70;90.70;;;;;;625593;230;26601;-66
2022/08/23 09:39:07;;;;;;;3.47;2.40;;;23.80;89.80;;;;;;626008;230;26622;-65
2022/08/23 09:41:35;;;;;;;1.55;1.40;;;23.80;89.80;;;;;;624322;230;26655;-65
2022/08/23 09:44:03;;;;;;;3.75;2.20;;;23.70;90.10;;;;;;625551;230;26556;-67
2022/08/23 09:46:31;;;;;;;51.10;11.40;;;23.80;89.80;;;;;;625546;230;26591;-63
2022/08/23 09:49:00;;;;;;;69.50;16.30;;;23.70;89.10;;;;;;625524;230;26559;-64
2022/08/23 09:51:32;;;;;;;21.70;6.43;;;23.70;89.70;;;;;;623419;231;27167;-65
2022/08/23 09:54:18;;;;;;;6.93;2.72;;;23.70;89.80;;;;;;623646;231;26553;-66
2022/08/23 09:56:45;;;;;;;40.63;8.20;;;24.00;89.40;;;;;;622672;231;26798;-64
2022/08/23 09:59:21;;;;;;;48.83;10.52;;;24.30;88.90;;;;;;622720;231;26555;-66
2022/08/23 10:01:46;;;;;;;14.15;4.90;;;24.50;87.70;;;;;;623328;231;26833;-66
2022/08/23 10:04:24;;;;;;;31.25;7.90;;;24.70;86.70;;;;;;623424;230;26532;-69
2022/08/23 10:06:51;;;;;;;11.18;4.00;;;24.80;85.70;;;;;;622385;230;26555;-66
2022/08/23 10:09:22;;;;;;;10.07;3.05;;;25.00;85.40;;;;;;623406;230;26907;-65
2022/08/23 10:11:50;;;;;;;6.05;2.90;;;25.20;82.50;;;;;;623214;227;26597;-67
2022/08/23 10:14:18;;;;;;;9.55;2.83;;;25.30;82.20;;;;;;623478;231;26528;-67
2022/08/23 10:17:16;;;;;;;5.55;3.20;;;25.30;81.60;;;;;;623198;230;26563;-67
2022/08/23 10:19:44;;;;;;;11.93;4.53;;;25.60;81.40;;;;;;611613;231;26539;-67
2022/08/23 10:22:17;;;;;;;12.05;4.55;;;25.60;81.30;;;;;;622551;230;26554;-67
2022/08/23 10:24:44;;;;;;;10.40;4.60;;;25.80;79.60;;;;;;623350;230;27235;-67
2022/08/23 10:29:47;;;;;;;4.15;2.20;;;26.20;78.80;;;;;;623280;230;26571;-67
2022/08/23 10:32:20;;;;;;;8.20;4.12;;;26.50;77.00;;;;;;623396;231;26555;-66
2022/08/23 10:35:03;;;;;;;4.68;2.53;;;26.40;76.90;;;;;;624921;228;26608;-66
2022/08/23 10:38:04;;;;;;;6.93;3.42;;;27.00;74.90;;;;;;623428;230;26587;-66
2022/08/23 10:40:38;;;;;;;3.55;2.90;;;26.90;74.80;;;;;;619081;230;26821;-66
2022/08/23 10:43:07;;;;;;;3.42;2.50;;;27.00;73.50;;;;;;624365;230;26588;-66
2022/08/23 10:45:35;;;;;;;4.62;3.00;;;26.80;74.10;;;;;;623940;230;26586;-66
2022/08/23 10:48:20;;;;;;;5.07;2.62;;;26.80;73.10;;;;;;624411;230;26772;-66
2022/08/23 10:50:47;;;;;;;2.92;2.17;;;27.00;73.40;;;;;;620764;230;26610;-66
2022/08/23 10:53:14;;;;;;;4.07;2.90;;;27.30;73.40;;;;;;623725;231;26537;-66
2022/08/23 10:56:02;;;;;;;2.78;2.53;;;27.40;72.80;;;;;;624101;231;26547;-67
2022/08/23 10:58:31;;;;;;;2.42;2.22;;;27.50;71.50;;;;;;624119;231;26751;-67
2022/08/23 11:00:59;;;;;;;3.00;2.70;;;27.20;70.70;;;;;;623932;230;26796;-67
2022/08/23 11:03:29;;;;;;;2.47;2.12;;;26.80;72.10;;;;;;624101;231;26540;-67
2022/08/23 11:06:09;;;;;;;2.90;2.28;;;27.10;72.00;;;;;;623877;231;26773;-67
2022/08/23 11:08:42;;;;;;;2.25;2.12;;;27.00;71.00;;;;;;624124;231;26523;-67
2022/08/23 11:11:04;;;;;;;2.50;1.98;;;27.00;71.00;;;;;;623770;230;26818;-67
2022/08/23 11:13:33;;;;;;;2.30;2.10;;;26.90;70.00;;;;;;623833;230;26831;-67
2022/08/23 11:16:01;;;;;;;4.15;2.15;;;26.90;71.30;;;;;;623696;230;26524;-67
2022/08/23 11:18:35;;;;;;;3.92;2.20;;;26.90;71.50;;;;;;623643;231;26580;-67
2022/08/23 11:21:10;;;;;;;2.47;2.00;;;26.90;71.30;;;;;;623535;231;26552;-67
2022/08/23 11:23:41;;;;;;;2.35;2.15;;;27.10;70.40;;;;;;620589;231;26774;-67
2022/08/23 11:26:10;;;;;;;2.47;2.00;;;27.10;70.00;;;;;;623692;230;26549;-67
2022/08/23 11:28:37;;;;;;;3.45;1.40;;;27.10;70.20;;;;;;621632;231;26551;-67
2022/08/23 11:31:20;;;;;;;2.30;1.70;;;27.10;69.60;;;;;;623410;231;26836;-67
2022/08/23 11:33:49;;;;;;;3.35;1.87;;;26.90;69.00;;;;;;623513;231;26563;-67
2022/08/23 11:36:19;;;;;;;2.75;2.15;;;26.80;69.70;;;;;;623261;231;26556;-67
2022/08/23 11:39:05;;;;;;;3.33;2.50;;;27.30;70.30;;;;;;623323;230;26563;-68
2022/08/23 11:41:33;;;;;;;3.50;2.33;;;27.40;68.30;;;;;;623301;231;26757;-67
2022/08/23 11:44:16;;;;;;;3.25;2.00;;;27.30;67.80;;;;;;623307;230;26568;-67
2022/08/23 11:46:59;;;;;;;3.22;1.92;;;27.10;68.40;;;;;;625113;230;26602;-67
2022/08/23 11:49:39;;;;;;;3.58;1.70;;;27.10;68.30;;;;;;624553;230;26702;-67
2022/08/23 11:52:18;;;;;;;2.50;1.90;;;27.10;68.30;;;;;;623590;230;26634;-67
2022/08/23 11:55:04;;;;;;;2.20;1.73;;;27.10;67.80;;;;;;623556;230;26609;-67
2022/08/23 11:57:38;;;;;;;2.45;1.90;;;26.70;68.90;;;;;;623259;230;26838;-67
2022/08/23 12:00:10;;;;;;;2.17;1.80;;;26.70;67.40;;;;;;623719;230;26584;-67
2022/08/23 12:02:51;;;;;;;4.03;2.33;;;26.60;68.00;;;;;;623355;230;26608;-67
2022/08/23 12:05:20;;;;;;;3.47;2.03;;;26.80;67.80;;;;;;623770;231;26787;-67
2022/08/23 12:07:52;;;;;;;3.35;2.17;;;27.20;66.50;;;;;;623377;230;26816;-68
2022/08/23 12:10:22;;;;;;;3.87;2.40;;;27.20;66.40;;;;;;623407;230;26638;-66
2022/08/23 12:12:49;;;;;;;3.20;1.95;;;27.30;65.10;;;;;;622181;231;26555;-66
2022/08/23 12:15:16;;;;;;;2.30;2.10;;;27.10;64.50;;;;;;620605;231;26544;-67
2022/08/23 12:17:58;;;;;;;2.65;2.08;;;27.40;66.40;;;;;;623817;230;26559;-67
2022/08/23 12:20:25;;;;;;;3.00;2.20;;;27.50;64.40;;;;;;622519;231;26603;-67
2022/08/23 12:23:01;;;;;;;2.45;2.10;;;27.70;63.40;;;;;;623244;231;26596;-67
2022/08/23 12:25:30;;;;;;;3.95;2.00;;;27.70;62.80;;;;;;623126;230;26532;-67
2022/08/23 12:27:56;;;;;;;3.10;1.80;;;27.50;63.80;;;;;;623387;230;26801;-67
2022/08/23 12:30:24;;;;;;;3.95;2.05;;;27.40;63.20;;;;;;622927;230;26587;-67
2022/08/23 12:32:51;;;;;;;2.00;1.77;;;27.30;64.40;;;;;;623212;230;26565;-67
2022/08/23 12:35:39;;;;;;;2.12;1.62;;;27.30;63.50;;;;;;623009;230;26975;-67
2022/08/23 12:38:11;;;;;;;1.83;1.55;;;27.40;64.40;;;;;;622055;231;27217;-66
2022/08/23 12:40:40;;;;;;;6.18;2.00;;;27.70;63.10;;;;;;623065;230;26591;-67
2022/08/23 12:43:07;;;;;;;4.97;1.83;;;27.70;63.00;;;;;;623404;230;26568;-67
2022/08/23 12:45:38;;;;;;;1.52;1.42;;;27.40;64.00;;;;;;623302;231;26548;-67
2022/08/23 12:48:05;;;;;;;1.83;1.73;;;27.30;64.40;;;;;;623375;231;26805;-67
2022/08/23 12:50:32;;;;;;;3.70;1.90;;;27.40;65.00;;;;;;623322;230;26587;-67
2022/08/23 12:53:00;;;;;;;4.50;1.92;;;28.10;64.50;;;;;;623265;231;26560;-67
2022/08/23 12:55:29;;;;;;;3.42;1.83;;;28.30;62.00;;;;;;623360;231;26793;-64
2022/08/23 12:57:58;;;;;;;2.40;1.42;;;28.10;61.80;;;;;;624851;228;26868;-64
2022/08/23 13:00:25;;;;;;;2.22;1.52;;;27.80;61.80;;;;;;623769;230;26633;-64
2022/08/23 13:03:08;;;;;;;2.92;1.67;;;27.90;60.90;;;;;;624960;230;26853;-64
2022/08/23 13:05:38;;;;;;;1.70;1.60;;;28.40;59.70;;;;;;623083;230;26549;-64